ROU2056 CYYZ-CYHZ
Flight info
| Callsign | ROU2056 |
|---|---|
| Flight time | N/A |
| Altitude | 39000 |
| Route | DEDKI5 OLABA Q951 TALNO Q929 TOXAL DCT EBONY FUNDY5 |
| Aircraft | A319/M-SDE3FGHIRWY/LB1 |
Departure
| Time | 2026-05-04 01:18 |
|---|---|
| Airport | Toronto Pearson International Airport (CYYZ) |
Arrival
| Time | N/A |
|---|---|
| Airport | Halifax / Stanfield International Airport (CYHZ) |
| Time | Latitude | Longitude | Altitude | Speed | Heading |
|---|---|---|---|---|---|
| 2026-05-04 00:59 | 43.68492 | -79.62482 | 562 ft | 0 kts | 88° |
| 2026-05-04 01:07 | 43.68491 | -79.62499 | 570 ft | 4 kts | 78° |
| 2026-05-04 01:07 | 43.68481 | -79.62532 | 566 ft | 4 kts | 42° |
| 2026-05-04 01:08 | 43.68458 | -79.62548 | 566 ft | 4 kts | 355° |
| 2026-05-04 01:08 | 43.68438 | -79.62535 | 570 ft | 4 kts | 315° |
| 2026-05-04 01:08 | 43.68427 | -79.62521 | 568 ft | 1 kts | 316° |
| 2026-05-04 01:10 | 43.68428 | -79.62522 | 568 ft | 1 kts | 316° |
| 2026-05-04 01:10 | 43.68439 | -79.62536 | 570 ft | 3 kts | 317° |
| 2026-05-04 01:11 | 43.68462 | -79.62565 | 567 ft | 6 kts | 317° |
| 2026-05-04 01:11 | 43.68495 | -79.62609 | 564 ft | 8 kts | 316° |
| 2026-05-04 01:11 | 43.68493 | -79.62669 | 562 ft | 7 kts | 247° |
| 2026-05-04 01:11 | 43.68477 | -79.62732 | 562 ft | 8 kts | 284° |
| 2026-05-04 01:12 | 43.68516 | -79.62799 | 562 ft | 10 kts | 314° |
| 2026-05-04 01:12 | 43.68572 | -79.62872 | 562 ft | 12 kts | 316° |
| 2026-05-04 01:12 | 43.68639 | -79.62958 | 561 ft | 14 kts | 316° |
| 2026-05-04 01:12 | 43.68713 | -79.63053 | 562 ft | 14 kts | 315° |
| 2026-05-04 01:13 | 43.68780 | -79.63141 | 562 ft | 14 kts | 317° |
| 2026-05-04 01:13 | 43.68856 | -79.63240 | 562 ft | 16 kts | 316° |
| 2026-05-04 01:13 | 43.68928 | -79.63333 | 564 ft | 13 kts | 316° |
| 2026-05-04 01:13 | 43.68991 | -79.63417 | 564 ft | 13 kts | 316° |
| 2026-05-04 01:14 | 43.69062 | -79.63510 | 567 ft | 14 kts | 317° |
| 2026-05-04 01:14 | 43.69134 | -79.63506 | 567 ft | 10 kts | 37° |
| 2026-05-04 01:14 | 43.69182 | -79.63444 | 565 ft | 11 kts | 39° |
| 2026-05-04 01:14 | 43.69264 | -79.63423 | 566 ft | 14 kts | 1° |
| 2026-05-04 01:15 | 43.69345 | -79.63423 | 563 ft | 0 kts | 344° |
| 2026-05-04 01:16 | 43.69347 | -79.63424 | 563 ft | 1 kts | 345° |
| 2026-05-04 01:16 | 43.69381 | -79.63453 | 562 ft | 12 kts | 319° |
| 2026-05-04 01:16 | 43.69381 | -79.63557 | 564 ft | 6 kts | 218° |
| 2026-05-04 01:17 | 43.69350 | -79.63599 | 564 ft | 6 kts | 225° |
| 2026-05-04 01:17 | 43.69282 | -79.63695 | 567 ft | 41 kts | 226° |
| 2026-05-04 01:17 | 43.68893 | -79.64260 | 572 ft | 118 kts | 226° |
| 2026-05-04 01:17 | 43.68186 | -79.65268 | 649 ft | 167 kts | 224° |
| 2026-05-04 01:18 | 43.67349 | -79.66484 | 1214 ft | 181 kts | 231° |
| 2026-05-04 01:18 | 43.66541 | -79.67967 | 1812 ft | 205 kts | 235° |
| 2026-05-04 01:18 | 43.65697 | -79.69677 | 2559 ft | 223 kts | 238° |
| 2026-05-04 01:18 | 43.64820 | -79.71476 | 3612 ft | 227 kts | 239° |
| 2026-05-04 01:19 | 43.63929 | -79.73289 | 4730 ft | 230 kts | 240° |
| 2026-05-04 01:19 | 43.62998 | -79.75124 | 5829 ft | 234 kts | 236° |
| 2026-05-04 01:19 | 43.61694 | -79.76563 | 6627 ft | 254 kts | 212° |
| 2026-05-04 01:19 | 43.59889 | -79.76931 | 6895 ft | 276 kts | 179° |
| 2026-05-04 01:20 | 43.58111 | -79.75807 | 6975 ft | 296 kts | 145° |
| 2026-05-04 01:20 | 43.56759 | -79.73587 | 6984 ft | 304 kts | 129° |
| 2026-05-04 01:20 | 43.55606 | -79.71122 | 6986 ft | 306 kts | 125° |
| 2026-05-04 01:20 | 43.54529 | -79.68589 | 6989 ft | 307 kts | 124° |
| 2026-05-04 01:21 | 43.53462 | -79.66049 | 6987 ft | 307 kts | 124° |
| 2026-05-04 01:21 | 43.52387 | -79.63516 | 6986 ft | 307 kts | 123° |
| 2026-05-04 01:21 | 43.51515 | -79.60599 | 6986 ft | 311 kts | 109° |
| 2026-05-04 01:21 | 43.51121 | -79.57747 | 6988 ft | 313 kts | 96° |
| 2026-05-04 01:22 | 43.51141 | -79.54734 | 6991 ft | 314 kts | 83° |
| 2026-05-04 01:22 | 43.51584 | -79.51803 | 6990 ft | 313 kts | 73° |
| 2026-05-04 01:22 | 43.52145 | -79.48895 | 6991 ft | 314 kts | 73° |
| 2026-05-04 01:22 | 43.52704 | -79.45986 | 6990 ft | 314 kts | 73° |
| 2026-05-04 01:23 | 43.53260 | -79.43077 | 6990 ft | 313 kts | 73° |
| 2026-05-04 01:23 | 43.53847 | -79.40188 | 6998 ft | 314 kts | 71° |
| 2026-05-04 01:23 | 43.54494 | -79.37270 | 7640 ft | 320 kts | 70° |
| 2026-05-04 01:23 | 43.55160 | -79.34369 | 8842 ft | 318 kts | 70° |
| 2026-05-04 01:24 | 43.55833 | -79.31455 | 9922 ft | 320 kts | 69° |
| 2026-05-04 01:24 | 43.56527 | -79.28446 | 10520 ft | 340 kts | 70° |
| 2026-05-04 01:24 | 43.57255 | -79.25265 | 11145 ft | 354 kts | 70° |
| 2026-05-04 01:24 | 43.57999 | -79.21951 | 12038 ft | 359 kts | 70° |
| 2026-05-04 01:25 | 43.58732 | -79.18646 | 12972 ft | 363 kts | 71° |
| 2026-05-04 01:25 | 43.59470 | -79.15309 | 13865 ft | 366 kts | 71° |
| 2026-05-04 01:25 | 43.60219 | -79.11924 | 14672 ft | 370 kts | 71° |
| 2026-05-04 01:25 | 43.60975 | -79.08509 | 15454 ft | 374 kts | 70° |
| 2026-05-04 01:26 | 43.61730 | -79.05095 | 16223 ft | 378 kts | 70° |
| 2026-05-04 01:26 | 43.62499 | -79.01610 | 17002 ft | 382 kts | 70° |
| 2026-05-04 01:26 | 43.63275 | -78.98084 | 17772 ft | 386 kts | 70° |
| 2026-05-04 01:26 | 43.64046 | -78.94580 | 18475 ft | 390 kts | 70° |
| 2026-05-04 01:27 | 43.64839 | -78.90971 | 19142 ft | 394 kts | 70° |
| 2026-05-04 01:27 | 43.65637 | -78.87341 | 19807 ft | 398 kts | 70° |
| 2026-05-04 01:27 | 43.66441 | -78.83667 | 20482 ft | 401 kts | 70° |
| 2026-05-04 01:27 | 43.67251 | -78.79963 | 21144 ft | 405 kts | 70° |
| 2026-05-04 01:28 | 43.68068 | -78.76214 | 21803 ft | 409 kts | 70° |
| 2026-05-04 01:28 | 43.68900 | -78.72436 | 22464 ft | 412 kts | 68° |
| 2026-05-04 01:28 | 43.69969 | -78.68750 | 22905 ft | 414 kts | 63° |
| 2026-05-04 01:28 | 43.71107 | -78.65098 | 23000 ft | 414 kts | 63° |
| 2026-05-04 01:29 | 43.72252 | -78.61435 | 23007 ft | 414 kts | 63° |
| 2026-05-04 01:29 | 43.73387 | -78.57783 | 23007 ft | 413 kts | 63° |
| 2026-05-04 01:29 | 43.74516 | -78.54126 | 23004 ft | 413 kts | 63° |
| 2026-05-04 01:29 | 43.75637 | -78.50471 | 23005 ft | 413 kts | 63° |
| 2026-05-04 01:30 | 43.76759 | -78.46803 | 23008 ft | 413 kts | 63° |
| 2026-05-04 01:30 | 43.77517 | -78.44330 | 23004 ft | 413 kts | 63° |
| 2026-05-04 01:30 | 43.78622 | -78.40719 | 23007 ft | 413 kts | 63° |
| 2026-05-04 01:30 | 43.79751 | -78.37022 | 23011 ft | 413 kts | 63° |
| 2026-05-04 01:31 | 43.80869 | -78.33351 | 23008 ft | 413 kts | 63° |
| 2026-05-04 01:31 | 43.81981 | -78.29689 | 23007 ft | 413 kts | 63° |
| 2026-05-04 01:31 | 43.83093 | -78.26021 | 23012 ft | 413 kts | 63° |
| 2026-05-04 01:31 | 43.84195 | -78.22367 | 23010 ft | 412 kts | 63° |
| 2026-05-04 01:32 | 43.85305 | -78.18693 | 23007 ft | 412 kts | 63° |
| 2026-05-04 01:32 | 43.86413 | -78.15034 | 23008 ft | 412 kts | 63° |
| 2026-05-04 01:32 | 43.87526 | -78.11371 | 23011 ft | 412 kts | 63° |
| 2026-05-04 01:32 | 43.88633 | -78.07718 | 23011 ft | 412 kts | 63° |
| 2026-05-04 01:33 | 43.89738 | -78.04046 | 23014 ft | 412 kts | 64° |
| 2026-05-04 01:33 | 43.90843 | -78.00369 | 23014 ft | 412 kts | 63° |
| 2026-05-04 01:33 | 43.91943 | -77.96711 | 23016 ft | 412 kts | 64° |
| 2026-05-04 01:33 | 43.93044 | -77.93043 | 23013 ft | 412 kts | 64° |
| 2026-05-04 01:34 | 43.94142 | -77.89375 | 23013 ft | 412 kts | 64° |
| 2026-05-04 01:34 | 43.95237 | -77.85709 | 23014 ft | 412 kts | 64° |
| 2026-05-04 01:34 | 43.96334 | -77.82024 | 23017 ft | 412 kts | 64° |
| 2026-05-04 01:34 | 43.97426 | -77.78353 | 23015 ft | 412 kts | 64° |
| 2026-05-04 01:35 | 43.98521 | -77.74674 | 23013 ft | 412 kts | 64° |
| 2026-05-04 01:35 | 43.99613 | -77.71000 | 23013 ft | 412 kts | 64° |
| 2026-05-04 01:35 | 44.00708 | -77.67319 | 23015 ft | 412 kts | 64° |
| 2026-05-04 01:35 | 44.01798 | -77.63646 | 23012 ft | 412 kts | 64° |
| 2026-05-04 01:36 | 44.02887 | -77.59970 | 23015 ft | 412 kts | 64° |
| 2026-05-04 01:36 | 44.03979 | -77.56278 | 23010 ft | 412 kts | 64° |
| 2026-05-04 01:36 | 44.05067 | -77.52593 | 23010 ft | 412 kts | 64° |
| 2026-05-04 01:36 | 44.06152 | -77.48915 | 23012 ft | 412 kts | 64° |
| 2026-05-04 01:37 | 44.07234 | -77.45238 | 23010 ft | 412 kts | 64° |
| 2026-05-04 01:37 | 44.08327 | -77.41562 | 23010 ft | 411 kts | 63° |
| 2026-05-04 01:37 | 44.09468 | -77.37964 | 23010 ft | 410 kts | 62° |
| 2026-05-04 01:37 | 44.10663 | -77.34360 | 23015 ft | 410 kts | 60° |
| 2026-05-04 01:38 | 44.11880 | -77.30768 | 23012 ft | 410 kts | 60° |
| 2026-05-04 01:38 | 44.13116 | -77.27138 | 23016 ft | 410 kts | 60° |
| 2026-05-04 01:38 | 44.14325 | -77.23556 | 23018 ft | 410 kts | 61° |
| 2026-05-04 01:38 | 44.15524 | -77.19960 | 23022 ft | 410 kts | 61° |
| 2026-05-04 01:39 | 44.16701 | -77.16387 | 23023 ft | 410 kts | 61° |
| 2026-05-04 01:39 | 44.17885 | -77.12776 | 23019 ft | 410 kts | 61° |
| 2026-05-04 01:39 | 44.19066 | -77.09162 | 23022 ft | 410 kts | 61° |
| 2026-05-04 01:39 | 44.20247 | -77.05551 | 23030 ft | 410 kts | 61° |
| 2026-05-04 01:40 | 44.21432 | -77.01922 | 23020 ft | 410 kts | 61° |
| 2026-05-04 01:40 | 44.22609 | -76.98308 | 23026 ft | 410 kts | 61° |
| 2026-05-04 01:40 | 44.23790 | -76.94680 | 23027 ft | 410 kts | 61° |
| 2026-05-04 01:40 | 44.24971 | -76.91051 | 23029 ft | 410 kts | 61° |
| 2026-05-04 01:41 | 44.26141 | -76.87440 | 23022 ft | 410 kts | 61° |
| 2026-05-04 01:41 | 44.27311 | -76.83798 | 23022 ft | 410 kts | 62° |
| 2026-05-04 01:41 | 44.28478 | -76.80160 | 23028 ft | 410 kts | 62° |
| 2026-05-04 01:41 | 44.29641 | -76.76539 | 23015 ft | 410 kts | 61° |
| 2026-05-04 01:42 | 44.30814 | -76.72903 | 23023 ft | 410 kts | 61° |
| 2026-05-04 01:42 | 44.31984 | -76.69278 | 23030 ft | 410 kts | 61° |
| 2026-05-04 01:42 | 44.33156 | -76.65645 | 23027 ft | 410 kts | 61° |
| 2026-05-04 01:42 | 44.34327 | -76.62016 | 23027 ft | 410 kts | 61° |
| 2026-05-04 01:43 | 44.35497 | -76.58385 | 23023 ft | 410 kts | 61° |
| 2026-05-04 01:43 | 44.36666 | -76.54750 | 23015 ft | 410 kts | 61° |
| 2026-05-04 01:43 | 44.37832 | -76.51118 | 23020 ft | 410 kts | 61° |
| 2026-05-04 01:43 | 44.38997 | -76.47482 | 23014 ft | 410 kts | 61° |
| 2026-05-04 01:44 | 44.40160 | -76.43841 | 23019 ft | 410 kts | 61° |
| 2026-05-04 01:44 | 44.41319 | -76.40205 | 23019 ft | 410 kts | 61° |
| 2026-05-04 01:44 | 44.42478 | -76.36571 | 23016 ft | 410 kts | 61° |
| 2026-05-04 01:44 | 44.43641 | -76.32924 | 23013 ft | 409 kts | 61° |
| 2026-05-04 01:45 | 44.44799 | -76.29289 | 23012 ft | 409 kts | 62° |
| 2026-05-04 01:45 | 44.45952 | -76.25646 | 23009 ft | 409 kts | 62° |
| 2026-05-04 01:45 | 44.48250 | -76.18363 | 23005 ft | 409 kts | 62° |
| 2026-05-04 01:46 | 44.49399 | -76.14718 | 23004 ft | 409 kts | 62° |
| 2026-05-04 01:46 | 44.50542 | -76.11083 | 23000 ft | 409 kts | 62° |
| 2026-05-04 01:46 | 44.51687 | -76.07436 | 23000 ft | 408 kts | 62° |
| 2026-05-04 01:46 | 44.52830 | -76.03794 | 23003 ft | 408 kts | 62° |
| 2026-05-04 01:47 | 44.53968 | -76.00161 | 23001 ft | 408 kts | 62° |
| 2026-05-04 01:47 | 44.55112 | -75.96509 | 22998 ft | 408 kts | 62° |
| 2026-05-04 01:47 | 44.56249 | -75.92874 | 22997 ft | 408 kts | 62° |
| 2026-05-04 01:47 | 44.57392 | -75.89225 | 22992 ft | 408 kts | 62° |
| 2026-05-04 01:48 | 44.58514 | -75.85636 | 22991 ft | 408 kts | 62° |
| 2026-05-04 01:48 | 44.59651 | -75.81992 | 22992 ft | 408 kts | 62° |
| 2026-05-04 01:48 | 44.60785 | -75.78362 | 22985 ft | 407 kts | 62° |
| 2026-05-04 01:48 | 44.61928 | -75.74711 | 22987 ft | 407 kts | 62° |
| 2026-05-04 01:49 | 44.63063 | -75.71076 | 22986 ft | 407 kts | 62° |
| 2026-05-04 01:49 | 44.64199 | -75.67421 | 22987 ft | 407 kts | 62° |
| 2026-05-04 01:49 | 44.65317 | -75.63776 | 22983 ft | 408 kts | 63° |
| 2026-05-04 01:49 | 44.66381 | -75.60065 | 22984 ft | 408 kts | 64° |
| 2026-05-04 01:50 | 44.67395 | -75.56331 | 22986 ft | 409 kts | 65° |
| 2026-05-04 01:50 | 44.68382 | -75.52600 | 22983 ft | 409 kts | 65° |
| 2026-05-04 01:50 | 44.69371 | -75.48839 | 22982 ft | 409 kts | 65° |
| 2026-05-04 01:50 | 44.70367 | -75.45091 | 22983 ft | 409 kts | 65° |
| 2026-05-04 01:51 | 44.71370 | -75.41360 | 22981 ft | 408 kts | 64° |
| 2026-05-04 01:51 | 44.72384 | -75.37631 | 22988 ft | 408 kts | 64° |
| 2026-05-04 01:51 | 44.73423 | -75.33923 | 22987 ft | 407 kts | 63° |
| 2026-05-04 01:51 | 44.74501 | -75.30244 | 22985 ft | 407 kts | 63° |
| 2026-05-04 01:52 | 44.75599 | -75.26574 | 22989 ft | 407 kts | 62° |
| 2026-05-04 01:52 | 44.76702 | -75.22905 | 22986 ft | 407 kts | 62° |
| 2026-05-04 01:52 | 44.77799 | -75.19235 | 22994 ft | 407 kts | 62° |
| 2026-05-04 01:52 | 44.78889 | -75.15560 | 22988 ft | 407 kts | 63° |
| 2026-05-04 01:53 | 44.79968 | -75.11886 | 22988 ft | 407 kts | 63° |
| 2026-05-04 01:53 | 44.81046 | -75.08194 | 22989 ft | 407 kts | 63° |
| 2026-05-04 01:53 | 44.82117 | -75.04511 | 22988 ft | 407 kts | 63° |
| 2026-05-04 01:53 | 44.83181 | -75.00818 | 23001 ft | 407 kts | 63° |
| 2026-05-04 01:54 | 44.84240 | -74.97130 | 22991 ft | 407 kts | 63° |
| 2026-05-04 01:54 | 44.85303 | -74.93447 | 22989 ft | 406 kts | 63° |
| 2026-05-04 01:54 | 44.86372 | -74.89744 | 22995 ft | 406 kts | 63° |
| 2026-05-04 01:54 | 44.87435 | -74.86067 | 22994 ft | 406 kts | 63° |
| 2026-05-04 01:55 | 44.88503 | -74.82377 | 22993 ft | 406 kts | 63° |
| 2026-05-04 01:55 | 44.89569 | -74.78689 | 22992 ft | 406 kts | 63° |
| 2026-05-04 01:55 | 44.90633 | -74.75002 | 22997 ft | 406 kts | 63° |
| 2026-05-04 01:55 | 44.91677 | -74.71303 | 22991 ft | 406 kts | 65° |
| 2026-05-04 01:56 | 44.92611 | -74.67533 | 22995 ft | 408 kts | 68° |
| 2026-05-04 01:56 | 44.93450 | -74.63720 | 22991 ft | 408 kts | 69° |
| 2026-05-04 01:56 | 44.94242 | -74.59871 | 22995 ft | 408 kts | 70° |
| 2026-05-04 01:56 | 44.95026 | -74.56005 | 22990 ft | 408 kts | 70° |
| 2026-05-04 01:57 | 44.95818 | -74.52155 | 22989 ft | 408 kts | 69° |
| 2026-05-04 01:57 | 44.96623 | -74.48325 | 22985 ft | 408 kts | 69° |
| 2026-05-04 01:57 | 44.97441 | -74.44502 | 22983 ft | 407 kts | 69° |
| 2026-05-04 01:57 | 44.98260 | -74.40719 | 22975 ft | 407 kts | 69° |
| 2026-05-04 01:58 | 44.99102 | -74.36848 | 22975 ft | 407 kts | 69° |
| 2026-05-04 01:58 | 44.99911 | -74.33017 | 22970 ft | 408 kts | 70° |
| 2026-05-04 01:58 | 45.00665 | -74.29144 | 22971 ft | 408 kts | 71° |
| 2026-05-04 01:58 | 45.01380 | -74.25258 | 22967 ft | 408 kts | 71° |
| 2026-05-04 01:59 | 45.02079 | -74.21366 | 22972 ft | 408 kts | 71° |
| 2026-05-04 01:59 | 45.02766 | -74.17530 | 22968 ft | 408 kts | 71° |
| 2026-05-04 01:59 | 45.03470 | -74.13639 | 22971 ft | 408 kts | 71° |
| 2026-05-04 01:59 | 45.04180 | -74.09757 | 22970 ft | 408 kts | 71° |
| 2026-05-04 02:00 | 45.04894 | -74.05878 | 22968 ft | 408 kts | 71° |
| 2026-05-04 02:00 | 45.05610 | -74.02009 | 22969 ft | 408 kts | 71° |
| 2026-05-04 02:00 | 45.06328 | -73.98121 | 22969 ft | 408 kts | 71° |
| 2026-05-04 02:00 | 45.07042 | -73.94238 | 22969 ft | 408 kts | 71° |
| 2026-05-04 02:01 | 45.07651 | -73.90313 | 22968 ft | 411 kts | 78° |
| 2026-05-04 02:01 | 45.07875 | -73.86268 | 22970 ft | 413 kts | 84° |
| 2026-05-04 02:01 | 45.08033 | -73.82214 | 22969 ft | 413 kts | 84° |
| 2026-05-04 02:01 | 45.08191 | -73.78151 | 22972 ft | 413 kts | 84° |
| 2026-05-04 02:02 | 45.08346 | -73.74101 | 22972 ft | 413 kts | 84° |
| 2026-05-04 02:02 | 45.08503 | -73.70046 | 22975 ft | 412 kts | 84° |
| 2026-05-04 02:02 | 45.08662 | -73.65999 | 22969 ft | 412 kts | 84° |
| 2026-05-04 02:02 | 45.08821 | -73.61951 | 22966 ft | 412 kts | 84° |
| 2026-05-04 02:03 | 45.08979 | -73.57897 | 22969 ft | 412 kts | 84° |
| 2026-05-04 02:03 | 45.09133 | -73.53844 | 22972 ft | 412 kts | 84° |
| 2026-05-04 02:03 | 45.09277 | -73.49794 | 22972 ft | 412 kts | 84° |
| 2026-05-04 02:03 | 45.09414 | -73.45740 | 22977 ft | 413 kts | 84° |
| 2026-05-04 02:04 | 45.09549 | -73.41693 | 22975 ft | 412 kts | 84° |
| 2026-05-04 02:04 | 45.09683 | -73.37623 | 22978 ft | 412 kts | 84° |
| 2026-05-04 02:04 | 45.09816 | -73.33572 | 22980 ft | 412 kts | 84° |
| 2026-05-04 02:04 | 45.09947 | -73.29543 | 22982 ft | 412 kts | 84° |
| 2026-05-04 02:05 | 45.10083 | -73.25491 | 22985 ft | 412 kts | 84° |
| 2026-05-04 02:05 | 45.10223 | -73.21428 | 22985 ft | 412 kts | 84° |
| 2026-05-04 02:05 | 45.10363 | -73.17390 | 22985 ft | 412 kts | 84° |
| 2026-05-04 02:05 | 45.10500 | -73.13339 | 22987 ft | 412 kts | 84° |
| 2026-05-04 02:06 | 45.10632 | -73.09301 | 22986 ft | 411 kts | 84° |
| 2026-05-04 02:06 | 45.10759 | -73.05246 | 22988 ft | 411 kts | 84° |
| 2026-05-04 02:06 | 45.10881 | -73.01199 | 22987 ft | 411 kts | 85° |
| 2026-05-04 02:06 | 45.11001 | -72.97167 | 22987 ft | 411 kts | 84° |
| 2026-05-04 02:07 | 45.11118 | -72.93122 | 22984 ft | 411 kts | 85° |
| 2026-05-04 02:07 | 45.11233 | -72.89082 | 22984 ft | 411 kts | 85° |
| 2026-05-04 02:07 | 45.11349 | -72.85047 | 22985 ft | 411 kts | 85° |
| 2026-05-04 02:07 | 45.11461 | -72.81010 | 22982 ft | 410 kts | 85° |
| 2026-05-04 02:08 | 45.11576 | -72.76960 | 22986 ft | 410 kts | 84° |
| 2026-05-04 02:08 | 45.11691 | -72.72925 | 22985 ft | 410 kts | 84° |
| 2026-05-04 02:08 | 45.11804 | -72.68907 | 22982 ft | 410 kts | 84° |
| 2026-05-04 02:08 | 45.11916 | -72.64854 | 22982 ft | 410 kts | 84° |
| 2026-05-04 02:09 | 45.12024 | -72.60827 | 22983 ft | 410 kts | 85° |
| 2026-05-04 02:09 | 45.12129 | -72.56797 | 22984 ft | 410 kts | 85° |
| 2026-05-04 02:09 | 45.12231 | -72.52755 | 22987 ft | 410 kts | 85° |
| 2026-05-04 02:09 | 45.12333 | -72.48726 | 22987 ft | 410 kts | 84° |
| 2026-05-04 02:10 | 45.12440 | -72.44693 | 22986 ft | 410 kts | 84° |
| 2026-05-04 02:10 | 45.12548 | -72.40672 | 22987 ft | 409 kts | 84° |
| 2026-05-04 02:10 | 45.12652 | -72.36648 | 22985 ft | 409 kts | 84° |
| 2026-05-04 02:10 | 45.12751 | -72.32615 | 22989 ft | 409 kts | 84° |
| 2026-05-04 02:11 | 45.12846 | -72.28589 | 22990 ft | 409 kts | 84° |
| 2026-05-04 02:11 | 45.12942 | -72.24542 | 22987 ft | 409 kts | 84° |
| 2026-05-04 02:11 | 45.13036 | -72.20511 | 22989 ft | 409 kts | 84° |
| 2026-05-04 02:11 | 45.13126 | -72.16487 | 22988 ft | 409 kts | 85° |
| 2026-05-04 02:12 | 45.13213 | -72.12513 | 22984 ft | 409 kts | 85° |
| 2026-05-04 02:12 | 45.13302 | -72.08492 | 22987 ft | 409 kts | 85° |
| 2026-05-04 02:12 | 45.13361 | -72.05781 | 22984 ft | 409 kts | 85° |
| 2026-05-04 02:12 | 45.13447 | -72.01756 | 22984 ft | 408 kts | 85° |
| 2026-05-04 02:13 | 45.13558 | -71.96428 | 22981 ft | 408 kts | 85° |
| 2026-05-04 02:13 | 45.13641 | -71.92423 | 22979 ft | 408 kts | 85° |
| 2026-05-04 02:13 | 45.13698 | -71.89706 | 22980 ft | 408 kts | 85° |
| 2026-05-04 02:13 | 45.13780 | -71.85688 | 22978 ft | 407 kts | 85° |
| 2026-05-04 02:14 | 45.13861 | -71.81686 | 22981 ft | 407 kts | 85° |
| 2026-05-04 02:14 | 45.13942 | -71.77677 | 22983 ft | 407 kts | 85° |
| 2026-05-04 02:14 | 45.14023 | -71.73670 | 22981 ft | 407 kts | 85° |
| 2026-05-04 02:14 | 45.14103 | -71.69661 | 22983 ft | 407 kts | 85° |
| 2026-05-04 02:15 | 45.14180 | -71.65659 | 22985 ft | 406 kts | 85° |
| 2026-05-04 02:15 | 45.14251 | -71.61654 | 22981 ft | 406 kts | 85° |
| 2026-05-04 02:15 | 45.14298 | -71.57660 | 22987 ft | 406 kts | 87° |
| 2026-05-04 02:15 | 45.14249 | -71.53658 | 22988 ft | 407 kts | 89° |
| 2026-05-04 02:16 | 45.14118 | -71.49658 | 22989 ft | 407 kts | 90° |
| 2026-05-04 02:16 | 45.13946 | -71.45661 | 22992 ft | 407 kts | 91° |
| 2026-05-04 02:16 | 45.13761 | -71.41657 | 22993 ft | 407 kts | 91° |
| 2026-05-04 02:16 | 45.13582 | -71.37657 | 22989 ft | 406 kts | 91° |
| 2026-05-04 02:17 | 45.13415 | -71.33671 | 22995 ft | 406 kts | 91° |
| 2026-05-04 02:17 | 45.13259 | -71.29668 | 22997 ft | 406 kts | 90° |
| 2026-05-04 02:17 | 45.13113 | -71.25677 | 22993 ft | 406 kts | 90° |
| 2026-05-04 02:17 | 45.12971 | -71.21686 | 22994 ft | 406 kts | 90° |
| 2026-05-04 02:18 | 45.12826 | -71.17694 | 22983 ft | 406 kts | 90° |
| 2026-05-04 02:18 | 45.12677 | -71.13698 | 22981 ft | 406 kts | 90° |
| 2026-05-04 02:18 | 45.12523 | -71.09713 | 22994 ft | 406 kts | 90° |
| 2026-05-04 02:18 | 45.12362 | -71.05715 | 22985 ft | 406 kts | 91° |
| 2026-05-04 02:19 | 45.12200 | -71.01730 | 22978 ft | 406 kts | 90° |
| 2026-05-04 02:19 | 45.12038 | -70.97735 | 22976 ft | 406 kts | 90° |
| 2026-05-04 02:19 | 45.11877 | -70.93739 | 22976 ft | 406 kts | 90° |
| 2026-05-04 02:19 | 45.11714 | -70.89744 | 22969 ft | 406 kts | 90° |
| 2026-05-04 02:20 | 45.11550 | -70.85757 | 22972 ft | 407 kts | 90° |
| 2026-05-04 02:20 | 45.11385 | -70.81754 | 22976 ft | 407 kts | 90° |
| 2026-05-04 02:20 | 45.11218 | -70.77758 | 22970 ft | 407 kts | 90° |
| 2026-05-04 02:20 | 45.11049 | -70.73770 | 22969 ft | 407 kts | 90° |
| 2026-05-04 02:21 | 45.10880 | -70.69771 | 22966 ft | 407 kts | 90° |
| 2026-05-04 02:21 | 45.10709 | -70.65780 | 22963 ft | 407 kts | 90° |
| 2026-05-04 02:21 | 45.10534 | -70.61779 | 22958 ft | 407 kts | 91° |
| 2026-05-04 02:21 | 45.10359 | -70.57797 | 22959 ft | 407 kts | 90° |
| 2026-05-04 02:22 | 45.10184 | -70.53796 | 22963 ft | 407 kts | 90° |
| 2026-05-04 02:22 | 45.10012 | -70.49801 | 22954 ft | 407 kts | 90° |
| 2026-05-04 02:22 | 45.09835 | -70.45793 | 22957 ft | 407 kts | 90° |
| 2026-05-04 02:22 | 45.09659 | -70.41811 | 22953 ft | 407 kts | 91° |
| 2026-05-04 02:23 | 45.09481 | -70.37803 | 22952 ft | 407 kts | 91° |
| 2026-05-04 02:23 | 45.09301 | -70.33823 | 22943 ft | 406 kts | 91° |
| 2026-05-04 02:23 | 45.09115 | -70.29835 | 22948 ft | 406 kts | 91° |
| 2026-05-04 02:23 | 45.08925 | -70.25852 | 22946 ft | 406 kts | 91° |
| 2026-05-04 02:24 | 45.08736 | -70.21868 | 22941 ft | 405 kts | 91° |
| 2026-05-04 02:24 | 45.08550 | -70.17880 | 22942 ft | 405 kts | 91° |
| 2026-05-04 02:24 | 45.08363 | -70.13914 | 22942 ft | 405 kts | 91° |
| 2026-05-04 02:24 | 45.08175 | -70.09936 | 22937 ft | 404 kts | 91° |
| 2026-05-04 02:25 | 45.07988 | -70.05981 | 22936 ft | 404 kts | 91° |
| 2026-05-04 02:25 | 45.07794 | -70.02002 | 22937 ft | 404 kts | 92° |
| 2026-05-04 02:25 | 45.07598 | -69.98039 | 22933 ft | 404 kts | 92° |
| 2026-05-04 02:25 | 45.07400 | -69.94082 | 22932 ft | 403 kts | 92° |
| 2026-05-04 02:26 | 45.07203 | -69.90119 | 22927 ft | 403 kts | 92° |
| 2026-05-04 02:26 | 45.07007 | -69.86171 | 22929 ft | 403 kts | 92° |
| 2026-05-04 02:26 | 45.06803 | -69.82218 | 22922 ft | 403 kts | 92° |
| 2026-05-04 02:26 | 45.06595 | -69.78276 | 22923 ft | 402 kts | 92° |
| 2026-05-04 02:27 | 45.06389 | -69.74329 | 22921 ft | 402 kts | 92° |
| 2026-05-04 02:27 | 45.06187 | -69.70437 | 22918 ft | 402 kts | 92° |
| 2026-05-04 02:27 | 45.05981 | -69.66444 | 22918 ft | 402 kts | 92° |
| 2026-05-04 02:27 | 45.05778 | -69.62507 | 22919 ft | 401 kts | 93° |
| 2026-05-04 02:28 | 45.05573 | -69.58579 | 22913 ft | 401 kts | 93° |
| 2026-05-04 02:28 | 45.05366 | -69.54649 | 22915 ft | 401 kts | 93° |
| 2026-05-04 02:28 | 45.05157 | -69.50727 | 22911 ft | 401 kts | 93° |
| 2026-05-04 02:28 | 45.04946 | -69.46797 | 22909 ft | 400 kts | 93° |
| 2026-05-04 02:29 | 45.04736 | -69.42868 | 22904 ft | 400 kts | 93° |
| 2026-05-04 02:29 | 45.04525 | -69.38957 | 22906 ft | 400 kts | 93° |
| 2026-05-04 02:29 | 45.04313 | -69.35076 | 22897 ft | 399 kts | 94° |
| 2026-05-04 02:29 | 45.04096 | -69.31122 | 22899 ft | 399 kts | 94° |
| 2026-05-04 02:30 | 45.03884 | -69.27260 | 22896 ft | 399 kts | 94° |
| 2026-05-04 02:30 | 45.03667 | -69.23307 | 22896 ft | 398 kts | 94° |
| 2026-05-04 02:30 | 45.03451 | -69.19413 | 22894 ft | 398 kts | 94° |
| 2026-05-04 02:30 | 45.03236 | -69.15568 | 22894 ft | 397 kts | 94° |
| 2026-05-04 02:31 | 45.03015 | -69.11676 | 22890 ft | 397 kts | 94° |
| 2026-05-04 02:31 | 45.02791 | -69.07786 | 22891 ft | 397 kts | 94° |
| 2026-05-04 02:31 | 45.02568 | -69.03899 | 22891 ft | 397 kts | 94° |
| 2026-05-04 02:31 | 45.02343 | -69.00016 | 22893 ft | 396 kts | 94° |
| 2026-05-04 02:32 | 45.02118 | -68.96127 | 22897 ft | 396 kts | 94° |
| 2026-05-04 02:32 | 45.01892 | -68.92238 | 22894 ft | 396 kts | 94° |
| 2026-05-04 02:32 | 45.01666 | -68.88362 | 22891 ft | 396 kts | 94° |
| 2026-05-04 02:32 | 45.01439 | -68.84490 | 22890 ft | 396 kts | 94° |
| 2026-05-04 02:33 | 45.01210 | -68.80559 | 22892 ft | 396 kts | 94° |
| 2026-05-04 02:33 | 45.00986 | -68.76735 | 22894 ft | 396 kts | 95° |
| 2026-05-04 02:33 | 45.00758 | -68.72867 | 22889 ft | 396 kts | 95° |
| 2026-05-04 02:33 | 45.00524 | -68.68991 | 22892 ft | 396 kts | 95° |
| 2026-05-04 02:34 | 45.00289 | -68.65127 | 22892 ft | 395 kts | 95° |
| 2026-05-04 02:34 | 45.00052 | -68.61250 | 22889 ft | 395 kts | 95° |
| 2026-05-04 02:34 | 44.99816 | -68.57383 | 22893 ft | 395 kts | 95° |
| 2026-05-04 02:34 | 44.99579 | -68.53515 | 22891 ft | 395 kts | 95° |
| 2026-05-04 02:35 | 44.99343 | -68.49652 | 22891 ft | 395 kts | 95° |
| 2026-05-04 02:35 | 44.99106 | -68.45793 | 22890 ft | 395 kts | 95° |
| 2026-05-04 02:35 | 44.98867 | -68.41924 | 22884 ft | 394 kts | 95° |
| 2026-05-04 02:35 | 44.98624 | -68.38068 | 22877 ft | 394 kts | 95° |
| 2026-05-04 02:36 | 44.98376 | -68.34208 | 22877 ft | 394 kts | 95° |
| 2026-05-04 02:36 | 44.98126 | -68.30356 | 22875 ft | 394 kts | 95° |
| 2026-05-04 02:36 | 44.97878 | -68.26508 | 22875 ft | 394 kts | 95° |
| 2026-05-04 02:36 | 44.97632 | -68.22649 | 22870 ft | 394 kts | 95° |
| 2026-05-04 02:37 | 44.97386 | -68.18786 | 22869 ft | 394 kts | 95° |
| 2026-05-04 02:37 | 44.97137 | -68.14924 | 22867 ft | 394 kts | 95° |
| 2026-05-04 02:37 | 44.96885 | -68.11077 | 22863 ft | 394 kts | 95° |
| 2026-05-04 02:37 | 44.96629 | -68.07224 | 22860 ft | 394 kts | 95° |
| 2026-05-04 02:38 | 44.96375 | -68.03367 | 22852 ft | 394 kts | 95° |
| 2026-05-04 02:38 | 44.96123 | -67.99510 | 22856 ft | 395 kts | 95° |
| 2026-05-04 02:38 | 44.95867 | -67.95640 | 22853 ft | 395 kts | 95° |
| 2026-05-04 02:38 | 44.95607 | -67.91789 | 22847 ft | 395 kts | 95° |
| 2026-05-04 02:39 | 44.95345 | -67.87935 | 22851 ft | 395 kts | 95° |
| 2026-05-04 02:39 | 44.95082 | -67.84070 | 22844 ft | 395 kts | 95° |
| 2026-05-04 02:39 | 44.94819 | -67.80193 | 22839 ft | 395 kts | 95° |
| 2026-05-04 02:39 | 44.94554 | -67.76323 | 22838 ft | 396 kts | 95° |
| 2026-05-04 02:40 | 44.94291 | -67.72501 | 22837 ft | 396 kts | 95° |
| 2026-05-04 02:40 | 44.94019 | -67.68574 | 22834 ft | 397 kts | 95° |
| 2026-05-04 02:40 | 44.93750 | -67.64696 | 22832 ft | 397 kts | 95° |
| 2026-05-04 02:40 | 44.93485 | -67.60869 | 22831 ft | 397 kts | 95° |
| 2026-05-04 02:41 | 44.93215 | -67.56994 | 22827 ft | 397 kts | 95° |
| 2026-05-04 02:41 | 44.92943 | -67.53124 | 22827 ft | 398 kts | 95° |
| 2026-05-04 02:41 | 44.92668 | -67.49219 | 22825 ft | 398 kts | 95° |
| 2026-05-04 02:41 | 44.92393 | -67.45332 | 22826 ft | 399 kts | 95° |
| 2026-05-04 02:42 | 44.92115 | -67.41432 | 22822 ft | 399 kts | 95° |
| 2026-05-04 02:42 | 44.91836 | -67.37541 | 22824 ft | 399 kts | 95° |
| 2026-05-04 02:42 | 44.91554 | -67.33638 | 22816 ft | 400 kts | 95° |
| 2026-05-04 02:42 | 44.91269 | -67.29737 | 22817 ft | 400 kts | 95° |
| 2026-05-04 02:43 | 44.90982 | -67.25836 | 22811 ft | 400 kts | 95° |
| 2026-05-04 02:43 | 44.90693 | -67.21944 | 22813 ft | 400 kts | 95° |
| 2026-05-04 02:43 | 44.90403 | -67.18044 | 22809 ft | 400 kts | 95° |
| 2026-05-04 02:43 | 44.90112 | -67.14139 | 22811 ft | 400 kts | 95° |
| 2026-05-04 02:44 | 44.89804 | -67.10239 | 22817 ft | 400 kts | 95° |
| 2026-05-04 02:44 | 44.89489 | -67.06341 | 22807 ft | 400 kts | 95° |
| 2026-05-04 02:44 | 44.89172 | -67.02439 | 22811 ft | 400 kts | 95° |
| 2026-05-04 02:44 | 44.88853 | -66.98538 | 22804 ft | 400 kts | 95° |
| 2026-05-04 02:45 | 44.88531 | -66.94642 | 22798 ft | 401 kts | 95° |
| 2026-05-04 02:45 | 44.88208 | -66.90743 | 22796 ft | 401 kts | 95° |
| 2026-05-04 02:45 | 44.87883 | -66.86837 | 22789 ft | 401 kts | 95° |
| 2026-05-04 02:45 | 44.87556 | -66.82941 | 22790 ft | 401 kts | 95° |
| 2026-05-04 02:46 | 44.87226 | -66.79037 | 22783 ft | 401 kts | 95° |
| 2026-05-04 02:46 | 44.86894 | -66.75118 | 22777 ft | 401 kts | 95° |
| 2026-05-04 02:46 | 44.86561 | -66.71229 | 22771 ft | 401 kts | 95° |
| 2026-05-04 02:46 | 44.86225 | -66.67321 | 22767 ft | 401 kts | 95° |
| 2026-05-04 02:47 | 44.85887 | -66.63414 | 22765 ft | 401 kts | 95° |
| 2026-05-04 02:47 | 44.85547 | -66.59505 | 22759 ft | 402 kts | 95° |
| 2026-05-04 02:47 | 44.85204 | -66.55594 | 22749 ft | 402 kts | 95° |
| 2026-05-04 02:47 | 44.84860 | -66.51702 | 22754 ft | 402 kts | 95° |
| 2026-05-04 02:48 | 44.84513 | -66.47789 | 22748 ft | 402 kts | 95° |
| 2026-05-04 02:48 | 44.84164 | -66.43884 | 22747 ft | 402 kts | 95° |
| 2026-05-04 02:48 | 44.83813 | -66.39972 | 22743 ft | 402 kts | 95° |
| 2026-05-04 02:48 | 44.83459 | -66.36063 | 22737 ft | 402 kts | 95° |
| 2026-05-04 02:49 | 44.83108 | -66.32170 | 22743 ft | 402 kts | 95° |
| 2026-05-04 02:49 | 44.82752 | -66.28251 | 22742 ft | 402 kts | 95° |
| 2026-05-04 02:49 | 44.82395 | -66.24351 | 22739 ft | 401 kts | 95° |
| 2026-05-04 02:49 | 44.82036 | -66.20459 | 22743 ft | 401 kts | 95° |
| 2026-05-04 02:50 | 44.81675 | -66.16562 | 22741 ft | 402 kts | 95° |
| 2026-05-04 02:50 | 44.81312 | -66.12658 | 22735 ft | 402 kts | 95° |
| 2026-05-04 02:50 | 44.80947 | -66.08768 | 22737 ft | 402 kts | 95° |
| 2026-05-04 02:50 | 44.80583 | -66.04860 | 22740 ft | 401 kts | 95° |
| 2026-05-04 02:51 | 44.80221 | -66.00966 | 22737 ft | 401 kts | 95° |
| 2026-05-04 02:51 | 44.79858 | -65.97072 | 22737 ft | 401 kts | 95° |
| 2026-05-04 02:51 | 44.79498 | -65.93188 | 22729 ft | 401 kts | 95° |
| 2026-05-04 02:51 | 44.79139 | -65.89305 | 22728 ft | 401 kts | 95° |
| 2026-05-04 02:52 | 44.78780 | -65.85403 | 22727 ft | 400 kts | 95° |
| 2026-05-04 02:52 | 44.78429 | -65.81525 | 22724 ft | 399 kts | 95° |
| 2026-05-04 02:52 | 44.78080 | -65.77652 | 22720 ft | 399 kts | 95° |
| 2026-05-04 02:52 | 44.77735 | -65.73768 | 22716 ft | 399 kts | 95° |